createdAt,value
2023-04-18T00:01:30.041Z,94907.13
2023-04-18T00:04:18.259Z,94904.28
2023-04-18T00:07:04.403Z,94912.06
2023-04-18T00:09:50.333Z,94905.25
2023-04-18T00:12:36.487Z,94910.81
2023-04-18T00:15:22.572Z,94911.91
2023-04-18T00:18:08.563Z,94905.25
2023-04-18T00:20:54.702Z,94911.13
2023-04-18T00:23:41.735Z,94907.31
2023-04-18T00:26:28.198Z,94912.72
2023-04-18T00:29:15.837Z,94911.91
2023-04-18T00:32:01.551Z,94915.88
2023-04-18T00:34:50.058Z,94908.09
2023-04-18T00:37:38.369Z,94912.06
2023-04-18T00:40:24.911Z,94906.03
2023-04-18T00:43:14.219Z,94909.19
2023-04-18T00:46:01.649Z,94894.59
2023-04-18T00:48:48.253Z,94901.56
2023-04-18T00:51:35.441Z,94903.16
2023-04-18T00:54:21.822Z,94895.38
2023-04-18T00:57:08.106Z,94902.81
2023-04-18T00:59:54.045Z,94896.97
2023-04-18T01:02:40.711Z,94903.97
2023-04-18T01:05:26.969Z,94901.09
2023-04-18T01:08:12.960Z,94892.03
2023-04-18T01:10:58.907Z,94898.09
2023-04-18T01:14:04.923Z,94888.09
2023-04-18T01:16:51.105Z,94889.53
2023-04-18T01:19:37.936Z,94898.59
2023-04-18T01:22:26.185Z,94882.22
2023-04-18T01:25:12.771Z,94897.16
2023-04-18T01:27:58.920Z,94893.50
2023-04-18T01:30:46.574Z,94899.84
2023-04-18T01:33:32.412Z,94899.41
2023-04-18T01:36:18.216Z,94900.97
2023-04-18T01:39:04.166Z,94882.22
2023-04-18T01:41:51.589Z,94900.31
2023-04-18T01:44:37.556Z,94899.38
2023-04-18T01:47:24.414Z,94899.53
2023-04-18T01:50:10.769Z,94904.59
2023-04-18T01:52:56.603Z,94899.19
2023-04-18T01:55:42.676Z,94903.66
2023-04-18T01:58:28.388Z,94891.75
2023-04-18T02:01:14.281Z,94894.91
2023-04-18T02:04:00.197Z,94901.75
2023-04-18T02:06:46.788Z,94896.66
2023-04-18T02:09:32.905Z,94900.94
2023-04-18T02:12:18.853Z,94907.47
2023-04-18T02:15:04.904Z,94907.94
2023-04-18T02:17:54.463Z,94907.94
2023-04-18T02:20:42.502Z,94908.56
2023-04-18T02:23:28.130Z,94916.53
2023-04-18T02:26:14.552Z,94915.41
2023-04-18T02:29:01.302Z,94914.13
2023-04-18T02:31:48.561Z,94924.63
2023-04-18T02:34:34.443Z,94919.06
2023-04-18T02:37:20.570Z,94918.25
2023-04-18T02:40:07.320Z,94920.34
2023-04-18T02:42:53.383Z,94920.34
2023-04-18T02:45:39.440Z,94914.13
2023-04-18T02:48:26.140Z,94913.81
2023-04-18T02:51:12.798Z,94921.94
2023-04-18T02:53:59.700Z,94927.31
2023-04-18T02:56:54.725Z,94918.44
2023-04-18T02:59:44.455Z,94928.91
2023-04-18T03:02:51.171Z,94925.09
2023-04-18T03:05:50.413Z,94922.41
2023-04-18T03:08:36.252Z,94923.53
2023-04-18T03:11:22.533Z,94930.03
2023-04-18T03:14:08.886Z,94938.13
2023-04-18T03:17:04.312Z,94935.91
2023-04-18T03:19:56.221Z,94944.78
2023-04-18T03:22:42.899Z,94933.22
2023-04-18T03:25:30.133Z,94935.91
2023-04-18T03:28:17.399Z,94947.47
2023-04-18T03:31:03.250Z,94939.72
2023-04-18T03:33:51.804Z,94939.06
2023-04-18T03:36:39.233Z,94944.47
2023-04-18T03:39:25.550Z,94941.31
2023-04-18T03:42:12.453Z,94942.88
2023-04-18T03:45:00.592Z,94947.47
2023-04-18T03:47:48.552Z,94943.53
2023-04-18T03:50:36.528Z,94943.53
2023-04-18T03:53:25.408Z,94946.72
2023-04-18T03:56:11.354Z,94948.13
2023-04-18T03:59:07.024Z,94952.13
2023-04-18T04:01:53.083Z,94959.06
2023-04-18T04:04:39.425Z,94960.53
2023-04-18T04:07:25.411Z,94968.78
2023-04-18T04:10:11.301Z,94970.38
2023-04-18T04:12:57.381Z,94971.47
2023-04-18T04:15:43.783Z,94976.56
2023-04-18T04:18:31.280Z,94973.06
2023-04-18T04:21:20.657Z,94980.06
2023-04-18T04:24:10.518Z,94976.72
2023-04-18T04:27:01.243Z,94979.75
2023-04-18T04:29:47.394Z,94988.00
2023-04-18T04:32:33.503Z,94979.91
2023-04-18T04:35:19.715Z,94978.00
2023-04-18T04:38:05.873Z,94978.00
2023-04-18T04:40:59.275Z,94974.03
2023-04-18T04:43:47.059Z,94976.09
2023-04-18T04:46:39.641Z,94975.00
2023-04-18T04:49:31.454Z,94977.22
2023-04-18T04:52:17.292Z,94980.22
2023-04-18T04:55:03.986Z,94984.84
2023-04-18T04:57:49.969Z,94984.84
2023-04-18T05:00:50.942Z,94984.19
2023-04-18T05:03:36.993Z,94986.44
2023-04-18T05:06:24.771Z,94998.81
2023-04-18T05:09:10.706Z,94991.81
2023-04-18T05:11:56.842Z,94999.75
2023-04-18T05:14:42.827Z,95000.56
2023-04-18T05:17:28.657Z,95006.59
2023-04-18T05:20:14.395Z,95006.75
2023-04-18T05:23:00.275Z,94999.44
2023-04-18T05:25:46.521Z,95000.41
2023-04-18T05:28:32.760Z,95004.41
2023-04-18T05:31:18.927Z,95004.56
2023-04-18T05:34:04.998Z,95009.31
2023-04-18T05:36:51.169Z,95011.06
2023-04-18T05:39:36.936Z,95008.84
2023-04-18T05:42:22.695Z,95006.28
2023-04-18T05:45:09.008Z,95016.75
2023-04-18T05:47:54.950Z,95017.41
2023-04-18T05:50:41.064Z,95030.44
2023-04-18T05:53:28.327Z,95027.41
2023-04-18T05:56:14.101Z,95030.41
2023-04-18T05:58:59.821Z,95034.84
2023-04-18T06:01:45.701Z,95038.97
2023-04-18T06:04:31.503Z,95027.34
2023-04-18T06:07:17.798Z,95035.91
2023-04-18T06:10:05.723Z,95043.56
2023-04-18T06:12:51.376Z,95045.28
2023-04-18T06:15:37.176Z,95048.78
2023-04-18T06:18:23.317Z,95049.25
2023-04-18T06:21:09.028Z,95049.41
2023-04-18T06:23:54.909Z,95049.09
2023-04-18T06:26:41.040Z,95049.22
2023-04-18T06:29:30.327Z,95047.31
2023-04-18T06:32:16.284Z,95041.78
2023-04-18T06:35:02.291Z,95050.81
2023-04-18T06:37:49.202Z,95049.84
2023-04-18T06:40:35.153Z,95048.09
2023-04-18T06:43:22.090Z,95057.13
2023-04-18T06:46:09.732Z,95059.19
2023-04-18T06:48:55.522Z,95064.41
2023-04-18T06:51:41.206Z,95065.38
2023-04-18T06:54:27.429Z,95054.69
2023-04-18T06:57:13.286Z,95059.13
2023-04-18T06:59:59.077Z,95057.34
2023-04-18T07:02:45.146Z,95056.72
2023-04-18T07:05:31.090Z,95058.09
2023-04-18T07:08:16.846Z,95055.22
2023-04-18T07:11:02.872Z,95057.28
2023-04-18T07:13:49.415Z,95050.28
2023-04-18T07:16:35.161Z,95064.44
2023-04-18T07:19:21.082Z,95063.66
2023-04-18T07:22:13.151Z,95067.63
2023-04-18T07:24:59.144Z,95062.22
2023-04-18T07:27:45.009Z,95067.09
2023-04-18T07:30:31.101Z,95067.38
2023-04-18T07:33:16.829Z,95060.66
2023-04-18T07:36:03.335Z,95061.06
2023-04-18T07:38:49.317Z,95067.09
2023-04-18T07:41:35.587Z,95073.25
2023-04-18T07:44:22.090Z,95060.16
2023-04-18T07:47:11.339Z,95068.47
2023-04-18T07:49:57.510Z,95066.38
2023-04-18T07:52:43.614Z,95072.97
2023-04-18T07:55:30.113Z,95072.28
2023-04-18T07:58:15.839Z,95065.75
2023-04-18T08:01:02.831Z,95067.78
2023-04-18T08:03:48.737Z,95062.38
2023-04-18T08:06:34.896Z,95063.31
2023-04-18T08:09:21.876Z,95061.72
2023-04-18T08:12:07.670Z,95066.25
2023-04-18T08:14:53.378Z,95063.78
2023-04-18T08:17:39.408Z,95065.19
2023-04-18T08:20:25.802Z,95067.03
2023-04-18T08:23:13.248Z,95061.50
2023-04-18T08:25:59.334Z,95060.53
2023-04-18T08:28:46.549Z,95059.16
2023-04-18T08:31:32.783Z,95047.31
2023-04-18T08:34:18.715Z,95050.59
2023-04-18T08:37:04.870Z,95048.13
2023-04-18T08:39:52.167Z,95052.66
2023-04-18T08:42:58.363Z,95045.44
2023-04-18T08:45:45.263Z,95048.91
2023-04-18T08:48:31.116Z,95050.41
2023-04-18T08:51:17.675Z,95047.47
2023-04-18T08:54:15.820Z,95048.13
2023-04-18T08:57:09.642Z,95056.75
2023-04-18T08:59:55.557Z,95063.53
2023-04-18T09:02:46.959Z,95054.94
2023-04-18T09:05:33.722Z,95061.50
2023-04-18T09:08:24.536Z,95054.59
2023-04-18T09:11:29.369Z,95057.84
2023-04-18T09:14:26.600Z,95060.38
2023-04-18T09:17:34.773Z,95065.22
2023-04-18T09:20:43.826Z,95068.88
2023-04-18T09:23:30.432Z,95063.84
2023-04-18T09:26:39.777Z,95067.34
2023-04-18T09:29:55.903Z,95058.97
2023-04-18T09:32:59.271Z,95057.94
2023-04-18T09:35:45.155Z,95051.03
2023-04-18T09:38:43.814Z,95056.69
2023-04-18T09:41:31.426Z,95054.84
2023-04-18T09:44:17.849Z,95057.78
2023-04-18T09:47:03.893Z,95057.19
2023-04-18T09:49:50.049Z,95064.41
2023-04-18T09:52:40.872Z,95058.38
2023-04-18T09:55:27.374Z,95057.66
2023-04-18T09:58:14.923Z,95055.41
2023-04-18T10:01:00.945Z,95053.13
2023-04-18T10:03:48.258Z,95049.97
2023-04-18T10:06:35.066Z,95049.88
2023-04-18T10:09:21.286Z,95052.94
2023-04-18T10:12:07.243Z,95033.69
2023-04-18T10:14:53.911Z,95030.09
2023-04-18T10:18:11.036Z,95041.84
2023-04-18T10:21:04.700Z,95039.91
2023-04-18T10:23:50.981Z,95034.00
2023-04-18T10:26:50.526Z,95028.03
2023-04-18T10:30:09.193Z,95026.81
2023-04-18T10:32:55.865Z,95030.56
2023-04-18T10:36:15.058Z,95025.81
2023-04-18T10:39:04.148Z,95023.91
2023-04-18T10:41:55.414Z,95022.75
2023-04-18T10:44:42.947Z,95012.56
2023-04-18T10:47:28.769Z,95017.09
2023-04-18T10:50:15.021Z,95019.72
2023-04-18T10:53:00.842Z,95015.78
2023-04-18T10:55:50.179Z,95016.91
2023-04-18T10:58:41.947Z,95011.47
2023-04-18T11:01:33.025Z,95023.25
2023-04-18T11:04:19.568Z,95010.00
2023-04-18T11:07:06.078Z,95011.31
2023-04-18T11:09:56.737Z,95011.66
2023-04-18T11:12:42.528Z,95008.25
2023-04-18T11:15:30.378Z,95010.41
2023-04-18T11:18:17.046Z,95005.84
2023-04-18T11:21:03.960Z,94999.88
2023-04-18T11:23:54.930Z,94983.66
2023-04-18T11:26:40.821Z,94989.81
2023-04-18T11:29:27.830Z,94991.28
2023-04-18T11:32:15.638Z,94983.81
2023-04-18T11:35:02.449Z,94979.75
2023-04-18T11:37:50.359Z,94985.22
2023-04-18T11:40:36.767Z,94988.00
2023-04-18T11:43:27.420Z,94979.94
2023-04-18T11:46:13.946Z,94980.13
2023-04-18T11:48:59.980Z,94964.34
2023-04-18T11:51:47.509Z,94966.81
2023-04-18T11:54:44.389Z,94972.25
2023-04-18T11:57:30.442Z,94966.97
2023-04-18T12:00:18.310Z,94973.50
2023-04-18T12:03:08.180Z,94983.47
2023-04-18T12:06:01.537Z,94979.41
2023-04-18T12:08:47.632Z,94984.69
2023-04-18T12:11:33.379Z,94974.25
2023-04-18T12:14:22.456Z,94988.78
2023-04-18T12:17:08.078Z,94982.19
2023-04-18T12:19:54.113Z,94992.84
2023-04-18T12:22:45.548Z,94986.22
2023-04-18T12:25:31.754Z,94987.44
2023-04-18T12:28:20.373Z,94994.16
2023-04-18T12:31:07.434Z,94993.91
2023-04-18T12:33:54.556Z,94992.00
2023-04-18T12:36:40.471Z,95003.13
2023-04-18T12:39:26.619Z,94997.06
2023-04-18T12:42:16.343Z,95003.06
2023-04-18T12:45:03.462Z,95009.84
2023-04-18T12:47:51.312Z,94995.63
2023-04-18T12:50:37.484Z,94996.13
2023-04-18T12:53:23.523Z,94993.94
2023-04-18T12:56:09.515Z,94991.69
2023-04-18T12:58:55.597Z,94999.25
2023-04-18T13:01:41.173Z,94987.28
2023-04-18T13:04:27.234Z,94995.81
2023-04-18T13:07:19.385Z,95004.25
2023-04-18T13:10:05.816Z,94997.09
2023-04-18T13:12:52.366Z,94994.66
2023-04-18T13:16:06.218Z,94996.03
2023-04-18T13:18:54.099Z,94990.47
2023-04-18T13:21:39.816Z,94986.53
2023-04-18T13:24:25.588Z,94989.69
2023-04-18T13:27:11.902Z,94981.97
2023-04-18T13:29:58.333Z,94979.00
2023-04-18T13:32:44.312Z,94979.97
2023-04-18T13:35:30.414Z,94981.41
2023-04-18T13:38:16.495Z,94976.16
2023-04-18T13:41:12.417Z,94984.66
2023-04-18T13:44:01.561Z,94989.38
2023-04-18T13:46:47.591Z,94988.06
2023-04-18T13:49:34.185Z,94981.28
2023-04-18T13:52:20.216Z,94977.91
2023-04-18T13:55:06.496Z,94983.91
2023-04-18T13:57:52.521Z,94978.72
2023-04-18T14:00:38.713Z,94979.63
2023-04-18T14:03:24.880Z,94977.63
2023-04-18T14:06:11.059Z,94974.56
2023-04-18T14:08:57.120Z,94972.53
2023-04-18T14:11:43.669Z,94975.09
2023-04-18T14:14:30.035Z,94974.41
2023-04-18T14:17:16.071Z,94971.72
2023-04-18T14:20:02.424Z,94979.19
2023-04-18T14:22:53.183Z,94968.94
2023-04-18T14:25:39.429Z,94975.91
2023-04-18T14:28:25.510Z,94978.28
2023-04-18T14:31:13.602Z,94979.84
2023-04-18T14:33:59.663Z,94979.88
2023-04-18T14:36:45.400Z,94985.41
2023-04-18T14:39:31.221Z,94979.09
2023-04-18T14:42:19.787Z,94984.63
2023-04-18T14:45:18.268Z,94978.00
2023-04-18T14:48:06.009Z,94985.47
2023-04-18T14:51:02.619Z,94994.88
2023-04-18T14:53:48.541Z,94985.31
2023-04-18T14:56:34.417Z,94990.66
2023-04-18T14:59:20.746Z,94985.28
2023-04-18T15:02:07.475Z,94982.22
2023-04-18T15:04:53.631Z,94986.63
2023-04-18T15:07:42.947Z,94981.59
2023-04-18T15:10:28.874Z,94979.81
2023-04-18T15:13:14.804Z,94991.53
2023-04-18T15:16:01.502Z,94985.19
2023-04-18T15:18:47.384Z,94981.34
2023-04-18T15:21:33.085Z,94997.47
2023-04-18T15:24:18.934Z,94993.94
2023-04-18T15:27:05.052Z,95003.63
2023-04-18T15:29:51.008Z,95005.31
2023-04-18T15:32:40.258Z,95012.16
2023-04-18T15:35:26.216Z,95020.53
2023-04-18T15:38:12.303Z,95020.34
2023-04-18T15:40:58.478Z,95033.34
2023-04-18T15:43:45.698Z,95033.13
2023-04-18T15:46:31.611Z,95035.22
2023-04-18T15:49:20.050Z,95040.75
2023-04-18T15:52:07.006Z,95041.66
2023-04-18T15:54:54.725Z,95045.25
2023-04-18T15:57:41.880Z,95040.66
2023-04-18T16:00:28.298Z,95053.03
2023-04-18T16:03:15.838Z,95055.63
2023-04-18T16:06:04.628Z,95058.63
2023-04-18T16:08:51.182Z,95054.63
2023-04-18T16:11:37.212Z,95068.13
2023-04-18T16:14:31.329Z,95075.81
2023-04-18T16:17:17.459Z,95069.84
2023-04-18T16:20:03.791Z,95074.34
2023-04-18T16:22:49.610Z,95073.75
2023-04-18T16:25:35.492Z,95085.31
2023-04-18T16:28:22.182Z,95081.13
2023-04-18T16:31:08.360Z,95090.25
2023-04-18T16:33:54.614Z,95090.34
2023-04-18T16:36:40.760Z,95090.16
2023-04-18T16:39:28.158Z,95092.28
2023-04-18T16:42:15.668Z,95089.66
2023-04-18T16:45:03.028Z,95091.88
2023-04-18T16:47:49.276Z,95099.41
2023-04-18T16:50:35.563Z,95107.06
2023-04-18T16:53:23.854Z,95113.91
2023-04-18T16:56:09.980Z,95115.19
2023-04-18T16:58:56.053Z,95124.41
2023-04-18T17:01:42.169Z,95123.44
2023-04-18T17:04:29.168Z,95129.44
2023-04-18T17:07:15.835Z,95126.09
2023-04-18T17:10:01.716Z,95129.03
2023-04-18T17:12:49.254Z,95136.69
2023-04-18T17:15:36.149Z,95140.00
2023-04-18T17:18:23.556Z,95147.25
2023-04-18T17:21:12.528Z,95144.69
2023-04-18T17:24:01.893Z,95151.59
2023-04-18T17:26:47.855Z,95147.50
2023-04-18T17:29:34.044Z,95148.91
2023-04-18T17:32:19.994Z,95145.63
2023-04-18T17:35:06.559Z,95144.59
2023-04-18T17:37:52.976Z,95135.78
2023-04-18T17:40:39.700Z,95149.84
2023-04-18T17:43:25.853Z,95152.00
2023-04-18T17:46:12.301Z,95155.97
2023-04-18T17:48:58.150Z,95160.06
2023-04-18T17:51:44.006Z,95166.84
2023-04-18T17:54:30.289Z,95162.75
2023-04-18T17:57:16.637Z,95175.09
2023-04-18T18:00:02.507Z,95179.63
2023-04-18T18:02:58.399Z,95175.53
2023-04-18T18:05:49.471Z,95181.28
2023-04-18T18:08:38.118Z,95188.06
2023-04-18T18:11:24.422Z,95189.31
2023-04-18T18:14:10.178Z,95191.66
2023-04-18T18:16:56.159Z,95192.09
2023-04-18T18:19:42.379Z,95192.94
2023-04-18T18:22:28.419Z,95206.84
2023-04-18T18:25:14.470Z,95208.84
2023-04-18T18:28:02.266Z,95211.66
2023-04-18T18:30:48.417Z,95212.53
2023-04-18T18:33:34.695Z,95218.03
2023-04-18T18:36:22.044Z,95208.31
2023-04-18T18:39:08.360Z,95220.97
2023-04-18T18:41:58.393Z,95220.34
2023-04-18T18:44:45.677Z,95222.94
2023-04-18T18:47:32.016Z,95220.88
2023-04-18T18:50:18.372Z,95224.25
2023-04-18T18:53:06.198Z,95221.28
2023-04-18T18:55:52.130Z,95225.28
2023-04-18T18:58:39.407Z,95223.44
2023-04-18T19:01:25.344Z,95236.06
2023-04-18T19:04:11.585Z,95230.03
2023-04-18T19:06:57.754Z,95238.47
2023-04-18T19:09:43.913Z,95236.41
2023-04-18T19:12:29.983Z,95237.75
2023-04-18T19:15:15.806Z,95238.38
2023-04-18T19:18:02.049Z,95236.00
2023-04-18T19:20:49.859Z,95244.47
2023-04-18T19:23:37.628Z,95239.69
2023-04-18T19:26:23.744Z,95241.94
2023-04-18T19:29:10.568Z,95238.94
2023-04-18T19:31:56.530Z,95241.19
2023-04-18T19:34:43.029Z,95246.75
2023-04-18T19:37:29.039Z,95238.81
2023-04-18T19:40:14.995Z,95241.69
2023-04-18T19:43:03.251Z,95236.00
2023-04-18T19:45:50.962Z,95234.56
2023-04-18T19:48:36.845Z,95234.13
2023-04-18T19:51:23.028Z,95246.06
2023-04-18T19:54:08.948Z,95244.00
2023-04-18T19:56:55.151Z,95245.13
2023-04-18T19:59:41.174Z,95248.47
2023-04-18T20:02:28.280Z,95243.03
2023-04-18T20:05:14.793Z,95247.97
2023-04-18T20:08:00.676Z,95250.84
2023-04-18T20:10:46.529Z,95254.19
2023-04-18T20:13:32.414Z,95253.38
2023-04-18T20:16:18.750Z,95256.41
2023-04-18T20:19:05.846Z,95251.50
2023-04-18T20:21:52.294Z,95254.53
2023-04-18T20:24:39.440Z,95256.13
2023-04-18T20:27:25.779Z,95258.81
2023-04-18T20:30:12.093Z,95246.88
2023-04-18T20:32:58.070Z,95248.47
2023-04-18T20:35:44.661Z,95256.13
2023-04-18T20:38:30.921Z,95257.72
2023-04-18T20:41:22.771Z,95247.19
2023-04-18T20:44:10.828Z,95246.72
2023-04-18T20:46:58.606Z,95248.81
2023-04-18T20:49:45.080Z,95244.19
2023-04-18T20:52:31.110Z,95237.81
2023-04-18T20:55:17.164Z,95243.06
2023-04-18T20:58:03.300Z,95243.72
2023-04-18T21:00:49.328Z,95246.59
2023-04-18T21:03:36.003Z,95243.25
2023-04-18T21:06:22.837Z,95238.47
2023-04-18T21:09:09.679Z,95242.13
2023-04-18T21:11:55.614Z,95247.53
2023-04-18T21:14:42.416Z,95241.69
2023-04-18T21:17:28.433Z,95239.59
2023-04-18T21:20:14.485Z,95243.91
2023-04-18T21:23:00.278Z,95228.78
2023-04-18T21:25:46.033Z,95236.41
2023-04-18T21:28:31.823Z,95235.44
2023-04-18T21:31:17.807Z,95235.44
2023-04-18T21:34:05.385Z,95230.34
2023-04-18T21:36:51.547Z,95233.06
2023-04-18T21:39:38.291Z,95237.69
2023-04-18T21:42:26.968Z,95234.50
2023-04-18T21:45:13.708Z,95236.09
2023-04-18T21:48:00.881Z,95231.31
2023-04-18T21:50:47.019Z,95229.91
2023-04-18T21:53:33.260Z,95237.69
2023-04-18T21:56:19.434Z,95240.06
2023-04-18T21:59:05.401Z,95244.03
2023-04-18T22:01:51.003Z,95235.44
2023-04-18T22:04:38.223Z,95231.63
2023-04-18T22:07:24.714Z,95234.03
2023-04-18T22:10:11.153Z,95238.00
2023-04-18T22:12:58.756Z,95238.00
2023-04-18T22:15:45.168Z,95237.53
2023-04-18T22:18:33.990Z,95232.28
2023-04-18T22:21:20.254Z,95236.91
2023-04-18T22:24:06.924Z,95238.50
2023-04-18T22:26:53.635Z,95238.00
2023-04-18T22:29:39.644Z,95243.41
2023-04-18T22:32:25.522Z,95235.63
2023-04-18T22:35:12.439Z,95233.72
2023-04-18T22:37:58.341Z,95235.44
2023-04-18T22:40:44.133Z,95225.28
2023-04-18T22:43:30.721Z,95239.25
2023-04-18T22:46:16.787Z,95241.66
2023-04-18T22:49:02.633Z,95242.94
2023-04-18T22:51:48.696Z,95236.41
2023-04-18T22:54:39.259Z,95228.91
2023-04-18T22:57:25.397Z,95232.41
2023-04-18T23:00:12.405Z,95244.69
2023-04-18T23:02:58.365Z,95236.09
2023-04-18T23:05:44.793Z,95231.63
2023-04-18T23:08:31.076Z,95230.19
2023-04-18T23:11:16.922Z,95226.22
2023-04-18T23:14:03.295Z,95230.03
2023-04-18T23:16:49.564Z,95222.06
2023-04-18T23:19:36.023Z,95223.84
2023-04-18T23:22:24.494Z,95222.56
2023-04-18T23:25:10.691Z,95228.44
2023-04-18T23:27:56.598Z,95229.91
2023-04-18T23:30:42.393Z,95233.41
2023-04-18T23:33:28.249Z,95227.50
2023-04-18T23:36:14.216Z,95227.50
2023-04-18T23:39:00.295Z,95223.84
2023-04-18T23:41:46.262Z,95220.03
2023-04-18T23:44:32.505Z,95226.53
2023-04-18T23:47:18.825Z,95221.75
2023-04-18T23:50:05.466Z,95224.94
2023-04-18T23:52:51.547Z,95221.13
2023-04-18T23:55:37.459Z,95209.19
2023-04-18T23:58:23.413Z,95203.31
